sensor_id;sensor_type;location;lat;lon;timestamp;pressure;altitude;pressure_sealevel;temperature
67501;BMP180;54349;52.528;19.760;2023-03-04T00:01:05;100334.80;;;20.14
67501;BMP180;54349;52.528;19.760;2023-03-04T00:03:33;100326.20;;;20.20
67501;BMP180;54349;52.528;19.760;2023-03-04T00:06:02;100308.20;;;20.20
67501;BMP180;54349;52.528;19.760;2023-03-04T00:08:30;100298.20;;;20.20
67501;BMP180;54349;52.528;19.760;2023-03-04T00:10:58;100292.80;;;20.20
67501;BMP180;54349;52.528;19.760;2023-03-04T00:13:26;100279.60;;;20.20
67501;BMP180;54349;52.528;19.760;2023-03-04T00:15:55;100281.00;;;20.20
67501;BMP180;54349;52.528;19.760;2023-03-04T00:18:23;100276.60;;;20.30
67501;BMP180;54349;52.528;19.760;2023-03-04T00:20:51;100273.00;;;20.30
67501;BMP180;54349;52.528;19.760;2023-03-04T00:23:19;100272.40;;;20.30
67501;BMP180;54349;52.528;19.760;2023-03-04T00:25:47;100277.20;;;20.30
67501;BMP180;54349;52.528;19.760;2023-03-04T00:28:15;100282.60;;;20.30
67501;BMP180;54349;52.528;19.760;2023-03-04T00:30:43;100282.60;;;20.30
67501;BMP180;54349;52.528;19.760;2023-03-04T00:33:11;100272.60;;;20.30
67501;BMP180;54349;52.528;19.760;2023-03-04T00:35:39;100267.00;;;20.22
67501;BMP180;54349;52.528;19.760;2023-03-04T00:38:08;100258.20;;;20.20
67501;BMP180;54349;52.528;19.760;2023-03-04T00:40:36;100252.80;;;20.20
67501;BMP180;54349;52.528;19.760;2023-03-04T00:43:04;100252.60;;;20.16
67501;BMP180;54349;52.528;19.760;2023-03-04T00:45:33;100245.80;;;20.10
67501;BMP180;54349;52.528;19.760;2023-03-04T00:48:01;100247.60;;;20.10
67501;BMP180;54349;52.528;19.760;2023-03-04T00:50:29;100242.60;;;20.10
67501;BMP180;54349;52.528;19.760;2023-03-04T00:52:57;100237.80;;;20.00
67501;BMP180;54349;52.528;19.760;2023-03-04T00:55:26;100234.80;;;20.00
67501;BMP180;54349;52.528;19.760;2023-03-04T00:57:54;100229.00;;;20.00
67501;BMP180;54349;52.528;19.760;2023-03-04T01:00:22;100220.20;;;19.90
67501;BMP180;54349;52.528;19.760;2023-03-04T01:02:51;100212.60;;;19.90
67501;BMP180;54349;52.528;19.760;2023-03-04T01:05:19;100199.80;;;19.90
67501;BMP180;54349;52.528;19.760;2023-03-04T01:07:47;100174.20;;;19.88
67501;BMP180;54349;52.528;19.760;2023-03-04T01:10:16;100163.00;;;19.82
67501;BMP180;54349;52.528;19.760;2023-03-04T01:12:45;100158.40;;;19.80
67501;BMP180;54349;52.528;19.760;2023-03-04T01:15:13;100148.80;;;19.80
67501;BMP180;54349;52.528;19.760;2023-03-04T01:17:41;100138.80;;;19.80
67501;BMP180;54349;52.528;19.760;2023-03-04T01:20:17;100130.60;;;19.72
67501;BMP180;54349;52.528;19.760;2023-03-04T01:22:45;100122.20;;;19.70
67501;BMP180;54349;52.528;19.760;2023-03-04T01:25:13;100118.20;;;19.70
67501;BMP180;54349;52.528;19.760;2023-03-04T01:27:41;100121.60;;;19.70
67501;BMP180;54349;52.528;19.760;2023-03-04T01:30:11;100115.80;;;19.66
67501;BMP180;54349;52.528;19.760;2023-03-04T01:32:40;100114.00;;;19.60
67501;BMP180;54349;52.528;19.760;2023-03-04T01:35:09;100098.00;;;19.60
67501;BMP180;54349;52.528;19.760;2023-03-04T01:37:37;100063.40;;;19.60
67501;BMP180;54349;52.528;19.760;2023-03-04T01:40:08;100050.80;;;19.60
67501;BMP180;54349;52.528;19.760;2023-03-04T01:42:38;100048.40;;;19.60
67501;BMP180;54349;52.528;19.760;2023-03-04T01:45:15;100041.80;;;19.58
67501;BMP180;54349;52.528;19.760;2023-03-04T01:47:46;100039.80;;;19.56
67501;BMP180;54349;52.528;19.760;2023-03-04T01:50:42;100036.00;;;19.50
67501;BMP180;54349;52.528;19.760;2023-03-04T01:53:20;100039.80;;;19.50
67501;BMP180;54349;52.528;19.760;2023-03-04T01:55:54;100029.80;;;19.50
67501;BMP180;54349;52.528;19.760;2023-03-04T01:58:28;100038.80;;;19.50
67501;BMP180;54349;52.528;19.760;2023-03-04T02:00:57;100047.00;;;19.50
67501;BMP180;54349;52.528;19.760;2023-03-04T02:03:26;100058.20;;;19.50
67501;BMP180;54349;52.528;19.760;2023-03-04T02:05:55;100064.00;;;19.42
67501;BMP180;54349;52.528;19.760;2023-03-04T02:08:24;100066.80;;;19.40
67501;BMP180;54349;52.528;19.760;2023-03-04T02:10:53;100077.20;;;19.40
67501;BMP180;54349;52.528;19.760;2023-03-04T02:13:22;100084.80;;;19.40
67501;BMP180;54349;52.528;19.760;2023-03-04T02:15:51;100090.00;;;19.38
67501;BMP180;54349;52.528;19.760;2023-03-04T02:18:23;100093.60;;;19.30
67501;BMP180;54349;52.528;19.760;2023-03-04T02:21:32;100095.20;;;19.30
67501;BMP180;54349;52.528;19.760;2023-03-04T02:24:58;100083.40;;;19.30
67501;BMP180;54349;52.528;19.760;2023-03-04T02:27:17;100081.20;;;19.30
67501;BMP180;54349;52.528;19.760;2023-03-04T02:29:49;100077.80;;;19.20
67501;BMP180;54349;52.528;19.760;2023-03-04T02:32:17;100074.40;;;19.20
67501;BMP180;54349;52.528;19.760;2023-03-04T02:34:49;100080.80;;;19.20
67501;BMP180;54349;52.528;19.760;2023-03-04T02:37:18;100076.60;;;19.20
67501;BMP180;54349;52.528;19.760;2023-03-04T02:39:49;100070.60;;;19.10
67501;BMP180;54349;52.528;19.760;2023-03-04T02:42:17;100068.20;;;19.10
67501;BMP180;54349;52.528;19.760;2023-03-04T02:44:46;100063.20;;;19.10
67501;BMP180;54349;52.528;19.760;2023-03-04T02:47:18;100067.80;;;19.10
67501;BMP180;54349;52.528;19.760;2023-03-04T02:49:47;100070.80;;;19.10
67501;BMP180;54349;52.528;19.760;2023-03-04T02:52:22;100062.80;;;19.10
67501;BMP180;54349;52.528;19.760;2023-03-04T02:54:51;100063.80;;;19.10
67501;BMP180;54349;52.528;19.760;2023-03-04T02:57:20;100061.40;;;19.10
67501;BMP180;54349;52.528;19.760;2023-03-04T02:59:52;100049.00;;;19.04
67501;BMP180;54349;52.528;19.760;2023-03-04T03:02:26;100046.00;;;19.00
67501;BMP180;54349;52.528;19.760;2023-03-04T03:04:54;100049.60;;;19.00
67501;BMP180;54349;52.528;19.760;2023-03-04T03:07:22;100045.40;;;19.00
67501;BMP180;54349;52.528;19.760;2023-03-04T03:09:51;100048.40;;;19.00
67501;BMP180;54349;52.528;19.760;2023-03-04T03:12:19;100035.80;;;19.00
67501;BMP180;54349;52.528;19.760;2023-03-04T03:14:47;100043.60;;;19.00
67501;BMP180;54349;52.528;19.760;2023-03-04T03:17:17;100037.40;;;19.00
67501;BMP180;54349;52.528;19.760;2023-03-04T03:19:46;100031.60;;;18.98
67501;BMP180;54349;52.528;19.760;2023-03-04T03:22:15;100029.00;;;18.96
67501;BMP180;54349;52.528;19.760;2023-03-04T03:24:43;100027.20;;;18.90
67501;BMP180;54349;52.528;19.760;2023-03-04T03:27:11;100029.60;;;18.90
67501;BMP180;54349;52.528;19.760;2023-03-04T03:29:39;100028.00;;;18.90
67501;BMP180;54349;52.528;19.760;2023-03-04T03:32:08;100030.20;;;18.90
67501;BMP180;54349;52.528;19.760;2023-03-04T03:34:36;100030.20;;;18.90
67501;BMP180;54349;52.528;19.760;2023-03-04T03:37:04;100019.60;;;18.90
67501;BMP180;54349;52.528;19.760;2023-03-04T03:39:32;100018.60;;;18.90
67501;BMP180;54349;52.528;19.760;2023-03-04T03:42:00;100023.40;;;18.80
67501;BMP180;54349;52.528;19.760;2023-03-04T03:44:28;100014.40;;;18.80
67501;BMP180;54349;52.528;19.760;2023-03-04T03:46:56;100010.80;;;18.80
67501;BMP180;54349;52.528;19.760;2023-03-04T03:49:24;100017.60;;;18.80
67501;BMP180;54349;52.528;19.760;2023-03-04T03:51:52;100015.00;;;18.80
67501;BMP180;54349;52.528;19.760;2023-03-04T03:54:20;100013.80;;;18.80
67501;BMP180;54349;52.528;19.760;2023-03-04T03:56:48;100011.00;;;18.80
67501;BMP180;54349;52.528;19.760;2023-03-04T03:59:16;100004.40;;;18.70
67501;BMP180;54349;52.528;19.760;2023-03-04T04:01:45;100003.80;;;18.70
67501;BMP180;54349;52.528;19.760;2023-03-04T04:04:13;99993.00;;;18.70
67501;BMP180;54349;52.528;19.760;2023-03-04T04:06:41;99986.60;;;18.70
67501;BMP180;54349;52.528;19.760;2023-03-04T04:09:09;99985.20;;;18.60
67501;BMP180;54349;52.528;19.760;2023-03-04T04:11:37;99983.20;;;18.60
67501;BMP180;54349;52.528;19.760;2023-03-04T04:14:05;99981.00;;;18.60
67501;BMP180;54349;52.528;19.760;2023-03-04T04:16:33;99981.20;;;18.60
67501;BMP180;54349;52.528;19.760;2023-03-04T04:19:01;99979.20;;;18.60
67501;BMP180;54349;52.528;19.760;2023-03-04T04:21:29;99972.40;;;18.60
67501;BMP180;54349;52.528;19.760;2023-03-04T04:23:58;99975.20;;;18.58
67501;BMP180;54349;52.528;19.760;2023-03-04T04:26:26;99971.20;;;18.50
67501;BMP180;54349;52.528;19.760;2023-03-04T04:28:54;99971.40;;;18.50
67501;BMP180;54349;52.528;19.760;2023-03-04T04:31:22;99971.20;;;18.50
67501;BMP180;54349;52.528;19.760;2023-03-04T04:33:50;99973.20;;;18.50
67501;BMP180;54349;52.528;19.760;2023-03-04T04:36:18;99977.40;;;18.50
67501;BMP180;54349;52.528;19.760;2023-03-04T04:38:46;99974.60;;;18.50
67501;BMP180;54349;52.528;19.760;2023-03-04T04:43:46;99978.40;;;18.50
67501;BMP180;54349;52.528;19.760;2023-03-04T04:46:15;99978.00;;;18.56
67501;BMP180;54349;52.528;19.760;2023-03-04T04:48:44;99978.20;;;18.60
67501;BMP180;54349;52.528;19.760;2023-03-04T04:51:13;99977.80;;;18.62
67501;BMP180;54349;52.528;19.760;2023-03-04T04:53:41;99978.80;;;18.70
67501;BMP180;54349;52.528;19.760;2023-03-04T04:56:16;99982.00;;;18.76
67501;BMP180;54349;52.528;19.760;2023-03-04T04:58:46;99983.60;;;18.80
67501;BMP180;54349;52.528;19.760;2023-03-04T05:01:14;99979.40;;;18.80
67501;BMP180;54349;52.528;19.760;2023-03-04T05:03:43;99975.00;;;18.90
67501;BMP180;54349;52.528;19.760;2023-03-04T05:06:12;99970.80;;;19.00
67501;BMP180;54349;52.528;19.760;2023-03-04T05:08:40;99973.80;;;19.00
67501;BMP180;54349;52.528;19.760;2023-03-04T05:11:08;99975.20;;;19.02
67501;BMP180;54349;52.528;19.760;2023-03-04T05:13:36;99969.00;;;19.10
67501;BMP180;54349;52.528;19.760;2023-03-04T05:16:05;99965.00;;;19.10
67501;BMP180;54349;52.528;19.760;2023-03-04T05:18:34;99964.20;;;19.18
67501;BMP180;54349;52.528;19.760;2023-03-04T05:21:03;99965.80;;;19.20
67501;BMP180;54349;52.528;19.760;2023-03-04T05:23:35;99960.00;;;19.24
67501;BMP180;54349;52.528;19.760;2023-03-04T05:26:05;99957.20;;;19.30
67501;BMP180;54349;52.528;19.760;2023-03-04T05:28:34;99957.60;;;19.30
67501;BMP180;54349;52.528;19.760;2023-03-04T05:31:03;99954.20;;;19.30
67501;BMP180;54349;52.528;19.760;2023-03-04T05:33:31;99953.60;;;19.30
67501;BMP180;54349;52.528;19.760;2023-03-04T05:36:01;99954.20;;;19.40
67501;BMP180;54349;52.528;19.760;2023-03-04T05:38:29;99951.00;;;19.40
67501;BMP180;54349;52.528;19.760;2023-03-04T05:41:01;99951.20;;;19.40
67501;BMP180;54349;52.528;19.760;2023-03-04T05:43:31;99952.60;;;19.46
67501;BMP180;54349;52.528;19.760;2023-03-04T05:46:02;99954.00;;;19.50
67501;BMP180;54349;52.528;19.760;2023-03-04T05:48:31;99957.00;;;19.50
67501;BMP180;54349;52.528;19.760;2023-03-04T05:51:00;99955.60;;;19.50
67501;BMP180;54349;52.528;19.760;2023-03-04T05:53:29;99947.20;;;19.52
67501;BMP180;54349;52.528;19.760;2023-03-04T05:55:57;99953.80;;;19.60
67501;BMP180;54349;52.528;19.760;2023-03-04T05:58:28;99957.60;;;19.60
67501;BMP180;54349;52.528;19.760;2023-03-04T06:00:59;99961.80;;;19.60
67501;BMP180;54349;52.528;19.760;2023-03-04T06:03:28;99959.80;;;19.60
67501;BMP180;54349;52.528;19.760;2023-03-04T06:05:57;99956.40;;;19.60
67501;BMP180;54349;52.528;19.760;2023-03-04T06:08:26;99952.20;;;19.68
67501;BMP180;54349;52.528;19.760;2023-03-04T06:10:56;99949.60;;;19.70
67501;BMP180;54349;52.528;19.760;2023-03-04T06:13:26;99950.60;;;19.70
67501;BMP180;54349;52.528;19.760;2023-03-04T06:15:57;99953.40;;;19.70
67501;BMP180;54349;52.528;19.760;2023-03-04T06:18:27;99951.80;;;19.70
67501;BMP180;54349;52.528;19.760;2023-03-04T06:20:59;99957.40;;;19.70
67501;BMP180;54349;52.528;19.760;2023-03-04T06:23:28;99961.80;;;19.76
67501;BMP180;54349;52.528;19.760;2023-03-04T06:25:58;99957.20;;;19.78
67501;BMP180;54349;52.528;19.760;2023-03-04T06:28:28;99950.40;;;19.80
67501;BMP180;54349;52.528;19.760;2023-03-04T06:30:56;99949.00;;;19.80
67501;BMP180;54349;52.528;19.760;2023-03-04T06:33:25;99954.20;;;19.80
67501;BMP180;54349;52.528;19.760;2023-03-04T06:35:56;99957.20;;;19.82
67501;BMP180;54349;52.528;19.760;2023-03-04T06:38:25;99949.60;;;19.80
67501;BMP180;54349;52.528;19.760;2023-03-04T06:40:53;99953.00;;;19.82
67501;BMP180;54349;52.528;19.760;2023-03-04T06:43:24;99953.60;;;19.90
67501;BMP180;54349;52.528;19.760;2023-03-04T06:45:52;99954.20;;;19.90
67501;BMP180;54349;52.528;19.760;2023-03-04T06:48:20;99955.00;;;19.90
67501;BMP180;54349;52.528;19.760;2023-03-04T06:50:48;99949.00;;;19.90
67501;BMP180;54349;52.528;19.760;2023-03-04T06:53:16;99952.00;;;19.90
67501;BMP180;54349;52.528;19.760;2023-03-04T06:55:46;99951.20;;;19.90
67501;BMP180;54349;52.528;19.760;2023-03-04T06:58:15;99950.60;;;19.90
67501;BMP180;54349;52.528;19.760;2023-03-04T07:00:44;99953.20;;;19.90
67501;BMP180;54349;52.528;19.760;2023-03-04T07:03:12;99945.00;;;19.90
67501;BMP180;54349;52.528;19.760;2023-03-04T07:05:42;99948.20;;;19.90
67501;BMP180;54349;52.528;19.760;2023-03-04T07:08:10;99948.20;;;20.00
67501;BMP180;54349;52.528;19.760;2023-03-04T07:10:38;99945.40;;;20.00
67501;BMP180;54349;52.528;19.760;2023-03-04T07:13:06;99946.80;;;20.00
67501;BMP180;54349;52.528;19.760;2023-03-04T07:15:36;99945.00;;;20.00
67501;BMP180;54349;52.528;19.760;2023-03-04T07:18:05;99945.20;;;20.00
67501;BMP180;54349;52.528;19.760;2023-03-04T07:20:33;99933.60;;;19.96
67501;BMP180;54349;52.528;19.760;2023-03-04T07:23:01;99931.80;;;20.00
67501;BMP180;54349;52.528;19.760;2023-03-04T07:25:29;99931.80;;;20.00
67501;BMP180;54349;52.528;19.760;2023-03-04T07:27:57;99931.60;;;20.00
67501;BMP180;54349;52.528;19.760;2023-03-04T07:30:25;99930.60;;;20.00
67501;BMP180;54349;52.528;19.760;2023-03-04T07:32:56;99930.20;;;20.00
67501;BMP180;54349;52.528;19.760;2023-03-04T07:35:25;99925.80;;;20.00
67501;BMP180;54349;52.528;19.760;2023-03-04T07:37:53;99929.20;;;20.06
67501;BMP180;54349;52.528;19.760;2023-03-04T07:40:21;99926.40;;;20.00
67501;BMP180;54349;52.528;19.760;2023-03-04T07:42:52;99926.00;;;20.00
67501;BMP180;54349;52.528;19.760;2023-03-04T07:45:22;99920.40;;;20.08
67501;BMP180;54349;52.528;19.760;2023-03-04T07:47:51;99922.20;;;20.10
67501;BMP180;54349;52.528;19.760;2023-03-04T07:50:20;99922.80;;;20.10
67501;BMP180;54349;52.528;19.760;2023-03-04T07:52:50;99924.80;;;20.10
67501;BMP180;54349;52.528;19.760;2023-03-04T07:55:18;99926.00;;;20.10
67501;BMP180;54349;52.528;19.760;2023-03-04T07:57:47;99922.40;;;20.10
67501;BMP180;54349;52.528;19.760;2023-03-04T08:00:16;99919.00;;;20.10
67501;BMP180;54349;52.528;19.760;2023-03-04T08:02:45;99919.40;;;20.12
67501;BMP180;54349;52.528;19.760;2023-03-04T08:05:13;99915.60;;;20.18
67501;BMP180;54349;52.528;19.760;2023-03-04T08:07:42;99917.40;;;20.20
67501;BMP180;54349;52.528;19.760;2023-03-04T08:10:10;99914.20;;;20.20
67501;BMP180;54349;52.528;19.760;2023-03-04T08:12:38;99912.80;;;20.20
67501;BMP180;54349;52.528;19.760;2023-03-04T08:15:07;99909.80;;;20.20
67501;BMP180;54349;52.528;19.760;2023-03-04T08:17:36;99901.40;;;20.20
67501;BMP180;54349;52.528;19.760;2023-03-04T08:20:06;99900.00;;;20.26
67501;BMP180;54349;52.528;19.760;2023-03-04T08:22:34;99894.40;;;20.30
67501;BMP180;54349;52.528;19.760;2023-03-04T08:25:03;99891.80;;;20.30
67501;BMP180;54349;52.528;19.760;2023-03-04T08:27:32;99889.60;;;20.30
67501;BMP180;54349;52.528;19.760;2023-03-04T08:30:00;99885.80;;;20.30
67501;BMP180;54349;52.528;19.760;2023-03-04T08:32:28;99887.60;;;20.30
67501;BMP180;54349;52.528;19.760;2023-03-04T08:34:57;99886.20;;;20.30
67501;BMP180;54349;52.528;19.760;2023-03-04T08:37:25;99883.60;;;20.30
67501;BMP180;54349;52.528;19.760;2023-03-04T08:39:53;99880.00;;;20.30
67501;BMP180;54349;52.528;19.760;2023-03-04T08:42:22;99876.20;;;20.30
67501;BMP180;54349;52.528;19.760;2023-03-04T08:44:51;99879.80;;;20.30
67501;BMP180;54349;52.528;19.760;2023-03-04T08:47:19;99876.80;;;20.30
67501;BMP180;54349;52.528;19.760;2023-03-04T08:49:47;99879.80;;;20.30
67501;BMP180;54349;52.528;19.760;2023-03-04T08:52:15;99876.20;;;20.36
67501;BMP180;54349;52.528;19.760;2023-03-04T08:54:43;99873.60;;;20.34
67501;BMP180;54349;52.528;19.760;2023-03-04T08:57:11;99873.00;;;20.40
67501;BMP180;54349;52.528;19.760;2023-03-04T08:59:39;99865.60;;;20.34
67501;BMP180;54349;52.528;19.760;2023-03-04T09:02:09;99864.40;;;20.40
67501;BMP180;54349;52.528;19.760;2023-03-04T09:04:37;99874.00;;;20.40
67501;BMP180;54349;52.528;19.760;2023-03-04T09:07:06;99873.60;;;20.40
67501;BMP180;54349;52.528;19.760;2023-03-04T09:09:35;99873.40;;;20.42
67501;BMP180;54349;52.528;19.760;2023-03-04T09:12:03;99869.00;;;20.40
67501;BMP180;54349;52.528;19.760;2023-03-04T09:14:33;99870.40;;;20.40
67501;BMP180;54349;52.528;19.760;2023-03-04T09:17:03;99867.80;;;20.50
67501;BMP180;54349;52.528;19.760;2023-03-04T09:19:32;99868.00;;;20.50
67501;BMP180;54349;52.528;19.760;2023-03-04T09:22:00;99864.80;;;20.50
67501;BMP180;54349;52.528;19.760;2023-03-04T09:24:29;99862.00;;;20.50
67501;BMP180;54349;52.528;19.760;2023-03-04T09:26:58;99866.60;;;20.50
67501;BMP180;54349;52.528;19.760;2023-03-04T09:29:29;99860.00;;;20.48
67501;BMP180;54349;52.528;19.760;2023-03-04T09:31:57;99858.60;;;20.44
67501;BMP180;54349;52.528;19.760;2023-03-04T09:34:25;99851.40;;;20.40
67501;BMP180;54349;52.528;19.760;2023-03-04T09:36:53;99858.00;;;20.40
67501;BMP180;54349;52.528;19.760;2023-03-04T09:39:21;99848.20;;;20.40
67501;BMP180;54349;52.528;19.760;2023-03-04T09:41:54;99844.80;;;20.40
67501;BMP180;54349;52.528;19.760;2023-03-04T09:44:31;99846.20;;;20.40
67501;BMP180;54349;52.528;19.760;2023-03-04T09:47:08;99841.20;;;20.50
67501;BMP180;54349;52.528;19.760;2023-03-04T09:49:41;99837.00;;;20.50
67501;BMP180;54349;52.528;19.760;2023-03-04T09:55:34;99837.80;;;20.48
67501;BMP180;54349;52.528;19.760;2023-03-04T09:58:51;99835.60;;;20.50
67501;BMP180;54349;52.528;19.760;2023-03-04T10:01:48;99833.80;;;20.60
67501;BMP180;54349;52.528;19.760;2023-03-04T10:04:40;99832.00;;;20.60
67501;BMP180;54349;52.528;19.760;2023-03-04T10:07:20;99830.00;;;20.60
67501;BMP180;54349;52.528;19.760;2023-03-04T10:10:00;99829.60;;;20.70
67501;BMP180;54349;52.528;19.760;2023-03-04T10:12:35;99825.80;;;20.80
67501;BMP180;54349;52.528;19.760;2023-03-04T10:15:34;99824.80;;;20.80
67501;BMP180;54349;52.528;19.760;2023-03-04T10:23:56;99817.80;;;20.70
67501;BMP180;54349;52.528;19.760;2023-03-04T10:26:30;99817.80;;;20.74
67501;BMP180;54349;52.528;19.760;2023-03-04T10:29:00;99821.20;;;20.70
67501;BMP180;54349;52.528;19.760;2023-03-04T10:31:35;99815.40;;;20.70
67501;BMP180;54349;52.528;19.760;2023-03-04T10:34:05;99812.80;;;20.70
67501;BMP180;54349;52.528;19.760;2023-03-04T10:39:35;99804.20;;;20.70
67501;BMP180;54349;52.528;19.760;2023-03-04T10:44:55;99806.20;;;20.60
67501;BMP180;54349;52.528;19.760;2023-03-04T10:47:30;99805.20;;;20.68
67501;BMP180;54349;52.528;19.760;2023-03-04T10:50:03;99803.60;;;20.64
67501;BMP180;54349;52.528;19.760;2023-03-04T10:52:40;99801.20;;;20.60
67501;BMP180;54349;52.528;19.760;2023-03-04T10:55:29;99800.60;;;20.60
67501;BMP180;54349;52.528;19.760;2023-03-04T10:58:03;99799.60;;;20.60
67501;BMP180;54349;52.528;19.760;2023-03-04T11:00:35;99797.20;;;20.66
67501;BMP180;54349;52.528;19.760;2023-03-04T11:03:29;99798.20;;;20.70
67501;BMP180;54349;52.528;19.760;2023-03-04T11:06:15;99789.60;;;20.80
67501;BMP180;54349;52.528;19.760;2023-03-04T11:08:48;99789.40;;;20.80
67501;BMP180;54349;52.528;19.760;2023-03-04T11:11:42;99789.40;;;20.80
67501;BMP180;54349;52.528;19.760;2023-03-04T11:14:37;99792.00;;;20.80
67501;BMP180;54349;52.528;19.760;2023-03-04T11:20:29;99793.00;;;20.80
67501;BMP180;54349;52.528;19.760;2023-03-04T11:23:15;99807.60;;;20.80
67501;BMP180;54349;52.528;19.760;2023-03-04T11:25:55;99803.40;;;20.90
67501;BMP180;54349;52.528;19.760;2023-03-04T11:28:58;99803.00;;;21.10
67501;BMP180;54349;52.528;19.760;2023-03-04T11:31:42;99811.40;;;21.20
67501;BMP180;54349;52.528;19.760;2023-03-04T11:42:50;99796.60;;;21.50
67501;BMP180;54349;52.528;19.760;2023-03-04T11:45:30;99795.80;;;21.60
67501;BMP180;54349;52.528;19.760;2023-03-04T11:56:44;99802.80;;;21.80
67501;BMP180;54349;52.528;19.760;2023-03-04T11:59:45;99798.00;;;21.80
67501;BMP180;54349;52.528;19.760;2023-03-04T12:02:22;99794.40;;;21.80
67501;BMP180;54349;52.528;19.760;2023-03-04T12:05:12;99792.60;;;21.70
67501;BMP180;54349;52.528;19.760;2023-03-04T12:30:21;99791.60;;;21.10
67501;BMP180;54349;52.528;19.760;2023-03-04T12:36:33;99790.20;;;21.30
67501;BMP180;54349;52.528;19.760;2023-03-04T12:42:28;99786.80;;;21.30
67501;BMP180;54349;52.528;19.760;2023-03-04T12:45:24;99786.00;;;21.30
67501;BMP180;54349;52.528;19.760;2023-03-04T12:48:34;99788.80;;;21.30
67501;BMP180;54349;52.528;19.760;2023-03-04T12:51:29;99781.40;;;21.32
67501;BMP180;54349;52.528;19.760;2023-03-04T12:57:34;99784.00;;;21.40
67501;BMP180;54349;52.528;19.760;2023-03-04T13:00:50;99788.20;;;21.48
67501;BMP180;54349;52.528;19.760;2023-03-04T13:03:37;99786.00;;;21.50
67501;BMP180;54349;52.528;19.760;2023-03-04T13:09:04;99779.80;;;21.50
67501;BMP180;54349;52.528;19.760;2023-03-04T13:12:02;99787.20;;;21.50
67501;BMP180;54349;52.528;19.760;2023-03-04T13:14:32;99783.60;;;21.60
67501;BMP180;54349;52.528;19.760;2023-03-04T13:20:38;99780.00;;;21.78
67501;BMP180;54349;52.528;19.760;2023-03-04T13:26:07;99785.20;;;21.80
67501;BMP180;54349;52.528;19.760;2023-03-04T13:28:41;99782.40;;;21.78
67501;BMP180;54349;52.528;19.760;2023-03-04T13:36:51;99782.00;;;21.88
67501;BMP180;54349;52.528;19.760;2023-03-04T13:39:26;99783.00;;;21.90
67501;BMP180;54349;52.528;19.760;2023-03-04T13:41:55;99782.20;;;21.90
67501;BMP180;54349;52.528;19.760;2023-03-04T13:47:20;99781.00;;;22.00
67501;BMP180;54349;52.528;19.760;2023-03-04T13:49:49;99779.40;;;22.00
67501;BMP180;54349;52.528;19.760;2023-03-04T13:52:41;99771.80;;;22.06
67501;BMP180;54349;52.528;19.760;2023-03-04T13:55:39;99775.60;;;22.10
67501;BMP180;54349;52.528;19.760;2023-03-04T13:58:20;99780.20;;;22.10
67501;BMP180;54349;52.528;19.760;2023-03-04T14:00:53;99791.20;;;22.20
67501;BMP180;54349;52.528;19.760;2023-03-04T14:03:29;99787.00;;;22.12
67501;BMP180;54349;52.528;19.760;2023-03-04T14:08:37;99793.80;;;22.10
67501;BMP180;54349;52.528;19.760;2023-03-04T14:11:33;99795.60;;;22.14
67501;BMP180;54349;52.528;19.760;2023-03-04T14:14:06;99799.20;;;22.18
67501;BMP180;54349;52.528;19.760;2023-03-04T14:16:44;99795.40;;;22.20
67501;BMP180;54349;52.528;19.760;2023-03-04T14:19:22;99801.60;;;22.20
67501;BMP180;54349;52.528;19.760;2023-03-04T14:21:51;99805.80;;;22.20
67501;BMP180;54349;52.528;19.760;2023-03-04T14:24:21;99803.60;;;22.20
67501;BMP180;54349;52.528;19.760;2023-03-04T14:27:09;99801.80;;;22.20
67501;BMP180;54349;52.528;19.760;2023-03-04T14:29:39;99807.20;;;22.22
67501;BMP180;54349;52.528;19.760;2023-03-04T14:32:07;99800.80;;;22.20
67501;BMP180;54349;52.528;19.760;2023-03-04T14:34:37;99801.00;;;22.20
67501;BMP180;54349;52.528;19.760;2023-03-04T14:37:34;99803.40;;;22.28
67501;BMP180;54349;52.528;19.760;2023-03-04T14:40:04;99810.40;;;22.20
67501;BMP180;54349;52.528;19.760;2023-03-04T14:42:41;99809.40;;;22.20
67501;BMP180;54349;52.528;19.760;2023-03-04T14:45:15;99819.20;;;22.20
67501;BMP180;54349;52.528;19.760;2023-03-04T14:47:46;99815.80;;;22.20
67501;BMP180;54349;52.528;19.760;2023-03-04T14:50:18;99816.40;;;22.20
67501;BMP180;54349;52.528;19.760;2023-03-04T14:52:49;99824.20;;;22.20
67501;BMP180;54349;52.528;19.760;2023-03-04T14:55:30;99837.60;;;22.20
67501;BMP180;54349;52.528;19.760;2023-03-04T14:58:20;99834.80;;;22.20
67501;BMP180;54349;52.528;19.760;2023-03-04T15:01:22;99831.60;;;22.10
67501;BMP180;54349;52.528;19.760;2023-03-04T15:04:02;99832.40;;;22.00
67501;BMP180;54349;52.528;19.760;2023-03-04T15:06:35;99861.40;;;21.90
67501;BMP180;54349;52.528;19.760;2023-03-04T15:09:22;99854.60;;;21.90
67501;BMP180;54349;52.528;19.760;2023-03-04T15:12:05;99849.60;;;21.80
67501;BMP180;54349;52.528;19.760;2023-03-04T15:14:54;99852.80;;;21.72
67501;BMP180;54349;52.528;19.760;2023-03-04T15:17:38;99854.40;;;21.70
67501;BMP180;54349;52.528;19.760;2023-03-04T15:20:26;99862.60;;;21.60
67501;BMP180;54349;52.528;19.760;2023-03-04T15:25:22;99885.60;;;21.50
67501;BMP180;54349;52.528;19.760;2023-03-04T15:27:51;99890.40;;;21.50
67501;BMP180;54349;52.528;19.760;2023-03-04T15:30:24;99897.00;;;21.40
67501;BMP180;54349;52.528;19.760;2023-03-04T15:32:56;99905.80;;;21.40
67501;BMP180;54349;52.528;19.760;2023-03-04T15:35:31;99909.20;;;21.34
67501;BMP180;54349;52.528;19.760;2023-03-04T15:38:00;99913.60;;;21.40
67501;BMP180;54349;52.528;19.760;2023-03-04T15:40:33;99915.40;;;21.40
67501;BMP180;54349;52.528;19.760;2023-03-04T15:43:04;99919.40;;;21.50
67501;BMP180;54349;52.528;19.760;2023-03-04T15:45:36;99923.80;;;21.60
67501;BMP180;54349;52.528;19.760;2023-03-04T15:48:08;99922.40;;;21.60
67501;BMP180;54349;52.528;19.760;2023-03-04T15:50:53;99932.00;;;21.70
67501;BMP180;54349;52.528;19.760;2023-03-04T15:53:53;99935.40;;;21.70
67501;BMP180;54349;52.528;19.760;2023-03-04T15:56:29;99939.20;;;21.80
67501;BMP180;54349;52.528;19.760;2023-03-04T16:01:30;99944.60;;;21.80